Time;durP1;ratioP1;P1;durP2;ratioP2;P2;SDS_P1;SDS_P2;PMS_P1;PMS_P2;Temp;Humidity;BMP_temperature;BMP_pressure;BME280_temperature;BME280_humidity;BME280_pressure;Samples;Min_cycle;Max_cycle;Signal;HPM_P1;HPM_P2
2021/07/17 00:00:15;;;;;;;28.38;8.63;;;;;;;;;;5039043;28;20138;-75
2021/07/17 00:02:42;;;;;;;19.17;7.22;;;;;;;;;;5035864;28;20103;-75
2021/07/17 00:05:10;;;;;;;24.83;6.95;;;;;;;;;;5038288;28;20476;-75
2021/07/17 00:07:37;;;;;;;19.38;7.00;;;;;;;;;;5038740;28;20185;-75
2021/07/17 00:10:06;;;;;;;31.23;8.68;;;;;;;;;;5038709;28;20437;-75
2021/07/17 00:12:32;;;;;;;32.97;9.95;;;;;;;;;;5039566;28;20051;-75
2021/07/17 00:14:58;;;;;;;25.88;9.00;;;;;;;;;;5040286;28;20044;-75
2021/07/17 00:17:25;;;;;;;33.53;9.15;;;;;;;;;;5037803;28;20444;-75
2021/07/17 00:19:51;;;;;;;28.85;9.75;;;;;;;;;;5037915;28;20045;-74
2021/07/17 00:22:17;;;;;;;30.35;8.10;;;;;;;;;;5039027;28;20064;-75
2021/07/17 00:24:43;;;;;;;36.10;10.10;;;;;;;;;;5038578;28;20119;-75
2021/07/17 00:27:09;;;;;;;30.05;9.13;;;;;;;;;;5039630;28;20056;-75
2021/07/17 00:29:36;;;;;;;33.97;9.68;;;;;;;;;;5040275;28;20049;-75
2021/07/17 00:32:02;;;;;;;28.48;10.30;;;;;;;;;;5039073;28;20049;-75
2021/07/17 00:34:28;;;;;;;27.73;9.80;;;;;;;;;;5041638;28;20041;-75
2021/07/17 00:36:54;;;;;;;27.23;9.30;;;;;;;;;;5038880;28;20041;-75
2021/07/17 00:39:21;;;;;;;25.30;8.23;;;;;;;;;;5042154;28;20049;-75
2021/07/17 00:41:47;;;;;;;22.25;7.97;;;;;;;;;;5042274;28;20097;-75
2021/07/17 00:44:13;;;;;;;30.88;9.35;;;;;;;;;;5040191;28;20048;-75
2021/07/17 00:46:40;;;;;;;23.77;8.93;;;;;;;;;;5040619;28;20041;-75
2021/07/17 00:49:08;;;;;;;39.65;10.55;;;;;;;;;;5040159;28;20578;-75
2021/07/17 00:51:35;;;;;;;28.13;9.25;;;;;;;;;;5040060;28;20106;-75
2021/07/17 00:54:02;;;;;;;25.02;8.63;;;;;;;;;;5042099;28;20067;-75
2021/07/17 00:56:30;;;;;;;32.60;9.10;;;;;;;;;;5044205;28;20412;-75
2021/07/17 00:58:59;;;;;;;22.05;8.32;;;;;;;;;;5041065;28;20045;-75
2021/07/17 01:01:27;;;;;;;24.50;7.93;;;;;;;;;;5040114;28;20488;-75
2021/07/17 01:03:55;;;;;;;19.23;7.65;;;;;;;;;;5039227;28;20136;-75
2021/07/17 01:06:21;;;;;;;23.33;8.10;;;;;;;;;;5038827;28;20076;-75
2021/07/17 01:08:48;;;;;;;23.15;8.85;;;;;;;;;;5043772;28;20072;-75
2021/07/17 01:11:14;;;;;;;21.33;7.80;;;;;;;;;;5044105;28;20044;-75
2021/07/17 01:13:40;;;;;;;22.40;7.88;;;;;;;;;;5045540;28;20089;-75
2021/07/17 01:16:06;;;;;;;25.70;7.40;;;;;;;;;;5044990;28;20049;-75
2021/07/17 01:18:32;;;;;;;27.95;9.18;;;;;;;;;;5041050;28;20045;-75
2021/07/17 01:20:59;;;;;;;24.30;8.90;;;;;;;;;;5042290;28;20053;-75
2021/07/17 01:23:25;;;;;;;29.92;9.90;;;;;;;;;;5043803;28;20053;-75
2021/07/17 01:25:52;;;;;;;28.88;9.70;;;;;;;;;;5044219;28;20037;-75
2021/07/17 01:28:18;;;;;;;22.75;8.70;;;;;;;;;;5040814;28;20101;-75
2021/07/17 01:30:44;;;;;;;22.67;7.65;;;;;;;;;;5044918;28;20355;-75
2021/07/17 01:33:11;;;;;;;22.90;8.80;;;;;;;;;;5041668;28;20040;-75
2021/07/17 01:35:37;;;;;;;25.27;8.38;;;;;;;;;;5046072;28;21632;-75
2021/07/17 01:38:04;;;;;;;23.73;7.53;;;;;;;;;;5038429;28;20088;-75
2021/07/17 01:40:30;;;;;;;26.33;7.90;;;;;;;;;;5042754;28;20037;-75
2021/07/17 01:42:58;;;;;;;21.73;6.60;;;;;;;;;;5046650;28;20083;-75
2021/07/17 01:45:27;;;;;;;24.50;7.95;;;;;;;;;;5043334;28;20047;-75
2021/07/17 01:47:55;;;;;;;25.90;7.60;;;;;;;;;;5038836;28;20060;-74
2021/07/17 01:50:24;;;;;;;23.38;7.40;;;;;;;;;;5044960;28;20464;-75
2021/07/17 01:52:51;;;;;;;28.13;8.55;;;;;;;;;;5039399;28;20123;-75
2021/07/17 01:55:18;;;;;;;24.42;7.35;;;;;;;;;;5041934;28;20037;-75
2021/07/17 01:57:47;;;;;;;30.33;7.85;;;;;;;;;;5041059;28;20500;-75
2021/07/17 02:00:14;;;;;;;26.60;6.88;;;;;;;;;;5043133;28;20067;-75
2021/07/17 02:02:40;;;;;;;19.65;6.93;;;;;;;;;;5037751;28;20052;-75
2021/07/17 02:05:06;;;;;;;18.45;6.60;;;;;;;;;;5044140;28;20095;-75
2021/07/17 02:07:33;;;;;;;23.58;7.78;;;;;;;;;;5043440;28;20084;-75
2021/07/17 02:10:05;;;;;;;24.33;6.93;;;;;;;;;;5040646;28;20065;-75
2021/07/17 02:12:31;;;;;;;20.73;6.65;;;;;;;;;;5037906;28;20069;-75
2021/07/17 02:14:57;;;;;;;23.73;7.68;;;;;;;;;;5039685;28;20045;-75
2021/07/17 02:17:23;;;;;;;18.20;6.68;;;;;;;;;;5040812;28;20084;-75
2021/07/17 02:19:50;;;;;;;20.75;6.15;;;;;;;;;;5043804;28;20037;-75
2021/07/17 02:22:16;;;;;;;28.45;7.82;;;;;;;;;;5042653;28;20040;-75
2021/07/17 02:24:42;;;;;;;19.65;6.55;;;;;;;;;;5043366;28;20133;-75
2021/07/17 02:27:09;;;;;;;18.55;6.82;;;;;;;;;;5043366;28;20152;-75
2021/07/17 02:29:35;;;;;;;24.63;7.63;;;;;;;;;;5040694;28;20826;-75
2021/07/17 02:32:01;;;;;;;30.90;8.52;;;;;;;;;;5046084;28;20455;-75
2021/07/17 02:34:28;;;;;;;35.55;8.57;;;;;;;;;;5041929;28;20044;-75
2021/07/17 02:36:54;;;;;;;34.30;8.88;;;;;;;;;;5044364;28;20085;-75
2021/07/17 02:39:20;;;;;;;41.75;9.27;;;;;;;;;;5042286;28;20048;-75
2021/07/17 02:41:46;;;;;;;34.90;9.55;;;;;;;;;;5043275;28;20106;-75
2021/07/17 02:44:12;;;;;;;30.10;9.15;;;;;;;;;;5041744;28;20051;-75
2021/07/17 02:46:39;;;;;;;44.42;10.77;;;;;;;;;;5034975;28;20065;-75
2021/07/17 02:49:05;;;;;;;29.98;8.65;;;;;;;;;;5039812;28;20058;-75
2021/07/17 02:51:31;;;;;;;34.10;10.18;;;;;;;;;;5040508;28;20037;-75
2021/07/17 02:53:57;;;;;;;37.45;9.52;;;;;;;;;;5045044;28;20041;-75
2021/07/17 02:56:24;;;;;;;34.53;9.07;;;;;;;;;;5042535;28;20037;-75
2021/07/17 02:58:50;;;;;;;40.80;9.20;;;;;;;;;;5042275;28;20116;-75
2021/07/17 03:01:16;;;;;;;31.27;8.55;;;;;;;;;;5042224;28;20041;-75
2021/07/17 03:03:43;;;;;;;30.60;9.38;;;;;;;;;;5036529;28;20100;-75
2021/07/17 03:06:09;;;;;;;36.97;10.05;;;;;;;;;;5038153;28;20117;-75
2021/07/17 03:08:35;;;;;;;32.53;9.60;;;;;;;;;;5037242;28;20065;-75
2021/07/17 03:11:02;;;;;;;36.70;8.93;;;;;;;;;;5039620;28;20124;-75
2021/07/17 03:13:29;;;;;;;36.03;8.90;;;;;;;;;;5037159;28;20069;-75
2021/07/17 03:15:55;;;;;;;35.15;9.50;;;;;;;;;;5042323;28;20048;-75
2021/07/17 03:18:22;;;;;;;33.20;9.75;;;;;;;;;;5044157;28;20045;-75
2021/07/17 03:20:49;;;;;;;38.50;9.38;;;;;;;;;;5034325;28;20033;-75
2021/07/17 03:23:15;;;;;;;29.52;8.27;;;;;;;;;;5043220;28;20132;-75
2021/07/17 03:25:41;;;;;;;34.67;9.80;;;;;;;;;;5038294;28;20041;-75
2021/07/17 03:28:07;;;;;;;45.55;10.40;;;;;;;;;;5039139;28;20050;-75
2021/07/17 03:30:34;;;;;;;36.70;11.35;;;;;;;;;;5036969;28;20051;-75
2021/07/17 03:33:01;;;;;;;34.50;10.48;;;;;;;;;;5040238;28;20044;-75
2021/07/17 03:35:27;;;;;;;33.78;10.25;;;;;;;;;;5039270;28;20041;-74
2021/07/17 03:37:53;;;;;;;36.45;9.93;;;;;;;;;;5038183;28;20045;-72
2021/07/17 03:40:20;;;;;;;36.70;10.18;;;;;;;;;;5039617;28;20438;-72
2021/07/17 03:42:46;;;;;;;32.70;9.70;;;;;;;;;;5037864;28;20165;-74
2021/07/17 03:45:12;;;;;;;28.20;9.02;;;;;;;;;;5042465;28;20103;-75
2021/07/17 03:47:38;;;;;;;31.63;9.88;;;;;;;;;;5039050;28;20043;-75
2021/07/17 03:50:05;;;;;;;38.45;10.77;;;;;;;;;;5037985;28;20501;-75
2021/07/17 03:52:35;;;;;;;32.90;9.27;;;;;;;;;;5039130;28;20133;-75
2021/07/17 03:55:01;;;;;;;32.55;10.80;;;;;;;;;;5034489;28;20087;-75
2021/07/17 03:57:28;;;;;;;39.15;9.80;;;;;;;;;;5041619;28;20049;-75
2021/07/17 03:59:54;;;;;;;31.15;9.52;;;;;;;;;;5040887;28;20113;-75
2021/07/17 04:02:20;;;;;;;40.00;11.20;;;;;;;;;;5036393;28;20048;-75
2021/07/17 04:04:47;;;;;;;38.85;9.32;;;;;;;;;;5039525;28;20041;-75
2021/07/17 04:07:14;;;;;;;35.42;9.68;;;;;;;;;;5042744;28;20424;-75
2021/07/17 04:09:40;;;;;;;37.42;10.88;;;;;;;;;;5043252;28;20045;-75
2021/07/17 04:12:06;;;;;;;31.60;9.07;;;;;;;;;;5044850;28;20077;-75
2021/07/17 04:14:33;;;;;;;31.85;9.20;;;;;;;;;;5042052;28;20091;-75
2021/07/17 04:16:59;;;;;;;33.47;10.43;;;;;;;;;;5045358;28;20045;-75
2021/07/17 04:19:25;;;;;;;34.70;8.45;;;;;;;;;;5043497;28;20059;-75
2021/07/17 04:21:51;;;;;;;37.65;9.70;;;;;;;;;;5046442;28;20116;-75
2021/07/17 04:24:17;;;;;;;37.65;10.15;;;;;;;;;;5036853;28;20068;-75
2021/07/17 04:26:44;;;;;;;33.78;8.88;;;;;;;;;;5043958;28;20072;-75
2021/07/17 04:29:10;;;;;;;34.22;8.98;;;;;;;;;;5047046;28;20129;-75
2021/07/17 04:31:36;;;;;;;29.58;9.38;;;;;;;;;;5043250;28;20041;-75
2021/07/17 04:34:02;;;;;;;31.27;9.45;;;;;;;;;;5047197;28;20127;-74
2021/07/17 04:36:32;;;;;;;24.92;8.38;;;;;;;;;;5043385;28;20049;-75
2021/07/17 04:38:58;;;;;;;33.20;9.18;;;;;;;;;;5039875;28;20144;-75
2021/07/17 04:41:24;;;;;;;27.52;8.43;;;;;;;;;;5039980;28;20046;-75
2021/07/17 04:43:50;;;;;;;25.90;9.05;;;;;;;;;;5039025;28;20051;-75
2021/07/17 04:46:16;;;;;;;29.67;8.52;;;;;;;;;;5044765;28;20063;-75
2021/07/17 04:48:42;;;;;;;31.85;9.18;;;;;;;;;;5041402;28;20465;-75
2021/07/17 04:51:09;;;;;;;28.55;9.10;;;;;;;;;;5039749;28;20059;-75
2021/07/17 04:53:35;;;;;;;31.52;9.05;;;;;;;;;;5044226;28;20084;-75
2021/07/17 04:56:01;;;;;;;36.60;8.52;;;;;;;;;;5042556;28;20044;-75
2021/07/17 04:58:28;;;;;;;29.52;8.68;;;;;;;;;;5041954;28;20493;-75
2021/07/17 05:00:54;;;;;;;37.47;8.95;;;;;;;;;;5044779;28;20381;-74
2021/07/17 05:03:20;;;;;;;26.75;8.80;;;;;;;;;;5041923;28;20133;-74
2021/07/17 05:05:47;;;;;;;28.20;9.00;;;;;;;;;;5047152;28;20075;-75
2021/07/17 05:08:13;;;;;;;29.55;9.63;;;;;;;;;;5043540;28;20430;-75
2021/07/17 05:10:39;;;;;;;31.50;8.90;;;;;;;;;;5048073;28;20095;-75
2021/07/17 05:13:11;;;;;;;34.45;9.10;;;;;;;;;;5042758;28;20119;-75
2021/07/17 05:15:37;;;;;;;26.50;8.88;;;;;;;;;;5044532;28;20784;-75
2021/07/17 05:18:03;;;;;;;31.95;9.65;;;;;;;;;;5035497;28;20041;-75
2021/07/17 05:20:29;;;;;;;26.88;8.32;;;;;;;;;;5041861;28;20538;-75
2021/07/17 05:22:55;;;;;;;26.90;8.90;;;;;;;;;;5042520;28;20159;-74
2021/07/17 05:25:21;;;;;;;26.65;7.95;;;;;;;;;;5037932;28;20090;-75
2021/07/17 05:27:48;;;;;;;30.30;9.68;;;;;;;;;;5039549;28;20091;-74
2021/07/17 05:30:14;;;;;;;30.67;9.25;;;;;;;;;;5042735;28;20033;-74
2021/07/17 05:32:41;;;;;;;29.80;9.88;;;;;;;;;;5036894;28;20053;-74
2021/07/17 05:35:07;;;;;;;33.70;9.15;;;;;;;;;;5038451;28;20037;-77
2021/07/17 05:37:33;;;;;;;35.53;10.18;;;;;;;;;;5042764;28;20045;-75
2021/07/17 05:39:59;;;;;;;21.52;8.75;;;;;;;;;;5039666;28;20073;-74
2021/07/17 05:42:26;;;;;;;32.30;9.98;;;;;;;;;;5038368;28;20045;-75
2021/07/17 05:44:52;;;;;;;25.63;9.65;;;;;;;;;;5041546;28;20098;-73
2021/07/17 05:47:18;;;;;;;33.63;10.98;;;;;;;;;;5042851;28;20117;-73
2021/07/17 05:49:45;;;;;;;24.50;9.25;;;;;;;;;;5041263;28;20094;-72
2021/07/17 05:52:11;;;;;;;29.02;9.13;;;;;;;;;;5041739;28;20042;-73
2021/07/17 05:54:37;;;;;;;32.83;10.10;;;;;;;;;;5041246;28;20673;-73
2021/07/17 05:57:03;;;;;;;26.77;10.00;;;;;;;;;;5044710;28;20160;-73
2021/07/17 05:59:30;;;;;;;30.30;9.85;;;;;;;;;;5042317;28;20060;-72
2021/07/17 06:01:56;;;;;;;28.70;9.45;;;;;;;;;;5039044;28;20136;-72
2021/07/17 06:04:23;;;;;;;24.67;8.90;;;;;;;;;;5041555;28;20045;-72
2021/07/17 06:06:49;;;;;;;29.40;9.80;;;;;;;;;;5042803;28;20089;-73
2021/07/17 06:09:15;;;;;;;23.67;9.60;;;;;;;;;;5046295;28;20048;-72
2021/07/17 06:11:41;;;;;;;25.05;9.32;;;;;;;;;;5035475;28;20053;-76
2021/07/17 06:14:07;;;;;;;31.77;8.02;;;;;;;;;;5036481;28;20039;-75
2021/07/17 06:16:33;;;;;;;24.20;8.30;;;;;;;;;;5035778;28;20162;-74
2021/07/17 06:19:00;;;;;;;30.10;9.45;;;;;;;;;;5035606;28;20061;-75
2021/07/17 06:21:26;;;;;;;20.83;7.15;;;;;;;;;;5040764;28;20044;-75
2021/07/17 06:23:52;;;;;;;28.10;8.48;;;;;;;;;;5040299;28;20041;-75
2021/07/17 06:26:18;;;;;;;23.10;7.68;;;;;;;;;;5038118;28;20045;-74
2021/07/17 06:28:44;;;;;;;25.77;8.70;;;;;;;;;;5046360;28;20064;-74
2021/07/17 06:31:11;;;;;;;26.48;7.57;;;;;;;;;;5049507;28;20120;-72
2021/07/17 06:33:37;;;;;;;20.55;7.38;;;;;;;;;;5048583;28;20075;-70
2021/07/17 06:36:03;;;;;;;25.38;8.57;;;;;;;;;;5047535;28;20098;-80
2021/07/17 06:38:29;;;;;;;21.55;7.40;;;;;;;;;;5047226;28;20060;-73
2021/07/17 06:40:55;;;;;;;23.52;6.50;;;;;;;;;;5049143;28;20073;-73
2021/07/17 06:43:22;;;;;;;25.00;7.57;;;;;;;;;;5047459;28;20086;-77
2021/07/17 06:45:48;;;;;;;19.55;6.20;;;;;;;;;;5049209;28;20048;-73
2021/07/17 06:48:14;;;;;;;20.10;6.18;;;;;;;;;;5048234;28;20049;-73
2021/07/17 06:50:40;;;;;;;15.15;5.32;;;;;;;;;;5048459;28;20159;-73
2021/07/17 06:53:06;;;;;;;25.55;6.53;;;;;;;;;;5048964;28;20117;-73
2021/07/17 06:55:33;;;;;;;22.33;5.82;;;;;;;;;;5049614;28;20201;-73
2021/07/17 06:58:00;;;;;;;26.25;7.28;;;;;;;;;;5048206;28;20053;-73
2021/07/17 07:00:27;;;;;;;20.85;6.20;;;;;;;;;;5048977;28;20033;-73
2021/07/17 07:02:53;;;;;;;21.15;6.25;;;;;;;;;;5049132;28;20075;-73
2021/07/17 07:05:19;;;;;;;16.67;6.50;;;;;;;;;;5048524;28;20119;-73
2021/07/17 07:07:45;;;;;;;17.70;5.70;;;;;;;;;;5048925;28;20087;-73
2021/07/17 07:10:11;;;;;;;13.90;5.03;;;;;;;;;;5049264;28;20048;-73
2021/07/17 07:12:39;;;;;;;19.27;4.75;;;;;;;;;;5048167;28;20072;-73
2021/07/17 07:15:06;;;;;;;21.48;5.75;;;;;;;;;;5049285;28;20040;-73
2021/07/17 07:17:33;;;;;;;19.25;5.88;;;;;;;;;;5048660;28;20488;-73
2021/07/17 07:19:59;;;;;;;16.65;6.07;;;;;;;;;;5048228;28;20086;-73
2021/07/17 07:22:25;;;;;;;18.45;5.22;;;;;;;;;;5046234;28;20053;-74
2021/07/17 07:24:51;;;;;;;20.90;5.78;;;;;;;;;;5046095;28;20067;-76
2021/07/17 07:27:18;;;;;;;16.60;6.15;;;;;;;;;;5045120;28;20123;-74
2021/07/17 07:29:44;;;;;;;16.02;4.28;;;;;;;;;;5042823;28;20382;-73
2021/07/17 07:32:10;;;;;;;17.20;5.05;;;;;;;;;;5047598;28;20052;-72
2021/07/17 07:34:36;;;;;;;20.40;4.63;;;;;;;;;;5042039;28;20069;-73
2021/07/17 07:37:02;;;;;;;17.25;4.90;;;;;;;;;;5047180;28;20109;-73
2021/07/17 07:39:29;;;;;;;18.33;4.50;;;;;;;;;;5043817;28;20091;-73
2021/07/17 07:41:55;;;;;;;14.43;4.28;;;;;;;;;;5046725;28;20110;-73
2021/07/17 07:44:21;;;;;;;12.60;4.38;;;;;;;;;;5047451;28;20358;-73
2021/07/17 07:46:47;;;;;;;12.18;3.63;;;;;;;;;;5050652;28;20048;-73
2021/07/17 07:49:13;;;;;;;12.32;3.75;;;;;;;;;;5049424;28;20373;-73
2021/07/17 07:51:40;;;;;;;19.48;3.90;;;;;;;;;;5049872;28;20060;-74
2021/07/17 07:54:06;;;;;;;13.52;4.40;;;;;;;;;;5046993;28;20045;-73
2021/07/17 07:56:32;;;;;;;13.98;4.20;;;;;;;;;;5048601;28;20108;-76
2021/07/17 07:58:58;;;;;;;17.65;4.32;;;;;;;;;;5043762;28;20080;-74
2021/07/17 08:01:25;;;;;;;14.23;4.18;;;;;;;;;;5046854;28;20103;-74
2021/07/17 08:03:51;;;;;;;11.73;3.00;;;;;;;;;;5040672;28;20076;-74
2021/07/17 08:06:18;;;;;;;11.90;4.32;;;;;;;;;;5037327;28;20041;-74
2021/07/17 08:08:44;;;;;;;10.70;3.78;;;;;;;;;;5039173;28;20041;-74
2021/07/17 08:11:10;;;;;;;11.38;3.17;;;;;;;;;;5044693;28;20067;-74
2021/07/17 08:13:37;;;;;;;11.05;3.22;;;;;;;;;;5046212;28;20065;-74
2021/07/17 08:16:03;;;;;;;15.50;3.70;;;;;;;;;;5038921;28;20409;-74
2021/07/17 08:18:30;;;;;;;5.97;2.35;;;;;;;;;;5038583;28;20120;-74
2021/07/17 08:20:56;;;;;;;11.52;2.67;;;;;;;;;;5043852;28;20063;-75
2021/07/17 08:23:23;;;;;;;18.10;3.85;;;;;;;;;;5043704;28;20443;-74
2021/07/17 08:25:50;;;;;;;12.48;2.72;;;;;;;;;;5035117;28;20037;-74
2021/07/17 08:28:16;;;;;;;9.77;2.92;;;;;;;;;;5043340;28;20166;-75
2021/07/17 08:30:42;;;;;;;11.35;2.78;;;;;;;;;;5038946;28;20124;-75
2021/07/17 08:33:09;;;;;;;10.27;2.85;;;;;;;;;;5037306;28;20503;-74
2021/07/17 08:35:35;;;;;;;10.27;3.05;;;;;;;;;;5041880;28;20055;-75
2021/07/17 08:38:01;;;;;;;16.30;3.28;;;;;;;;;;5048463;28;20073;-75
2021/07/17 08:40:28;;;;;;;11.70;3.00;;;;;;;;;;5045730;28;20042;-74
2021/07/17 08:42:55;;;;;;;9.57;3.38;;;;;;;;;;5043419;28;20040;-75
2021/07/17 08:45:22;;;;;;;10.75;3.03;;;;;;;;;;5047939;28;20090;-75
2021/07/17 08:47:50;;;;;;;14.00;2.72;;;;;;;;;;5037323;28;20043;-74
2021/07/17 08:50:18;;;;;;;16.90;3.53;;;;;;;;;;5037860;28;20038;-74
2021/07/17 08:52:45;;;;;;;11.48;2.40;;;;;;;;;;5040557;28;20412;-74
2021/07/17 08:55:12;;;;;;;10.40;2.80;;;;;;;;;;5041945;28;20065;-74
2021/07/17 08:57:39;;;;;;;9.27;3.05;;;;;;;;;;5040912;28;20085;-74
2021/07/17 09:00:08;;;;;;;8.57;2.45;;;;;;;;;;5037015;28;20071;-74
2021/07/17 09:02:41;;;;;;;12.30;3.20;;;;;;;;;;5042369;28;20060;-74
2021/07/17 09:05:09;;;;;;;8.68;2.67;;;;;;;;;;5038529;28;20155;-74
2021/07/17 09:07:35;;;;;;;8.55;2.63;;;;;;;;;;5040382;28;20049;-75
2021/07/17 09:10:21;;;;;;;11.52;2.88;;;;;;;;;;5045352;28;20107;-75
2021/07/17 09:12:47;;;;;;;10.25;2.63;;;;;;;;;;5032709;28;20089;-74
2021/07/17 09:15:20;;;;;;;10.73;2.70;;;;;;;;;;5044549;28;20097;-74
2021/07/17 09:17:53;;;;;;;9.77;2.67;;;;;;;;;;5043820;28;20044;-74
2021/07/17 09:20:19;;;;;;;13.32;2.90;;;;;;;;;;5041202;28;20045;-74
2021/07/17 09:22:47;;;;;;;14.25;3.22;;;;;;;;;;5039737;28;20140;-76
2021/07/17 09:25:15;;;;;;;11.45;2.60;;;;;;;;;;5038847;28;20048;-75
2021/07/17 09:27:42;;;;;;;9.25;2.67;;;;;;;;;;5035140;28;20069;-73
2021/07/17 09:30:26;;;;;;;9.70;2.83;;;;;;;;;;5036403;28;20075;-74
2021/07/17 09:32:58;;;;;;;12.40;3.10;;;;;;;;;;5038641;28;20055;-74
2021/07/17 09:35:24;;;;;;;8.68;2.00;;;;;;;;;;5038515;28;20037;-74
2021/07/17 09:37:57;;;;;;;7.50;1.95;;;;;;;;;;5038745;28;20114;-74
2021/07/17 09:40:24;;;;;;;6.70;2.15;;;;;;;;;;5035659;28;20039;-74
2021/07/17 09:42:50;;;;;;;7.20;2.08;;;;;;;;;;5039492;28;20066;-73
2021/07/17 09:45:37;;;;;;;8.45;2.10;;;;;;;;;;5040083;28;20036;-74
2021/07/17 09:48:19;;;;;;;11.27;1.92;;;;;;;;;;5044283;28;20052;-74
2021/07/17 09:50:46;;;;;;;8.20;1.97;;;;;;;;;;5042924;28;20049;-76
2021/07/17 09:53:12;;;;;;;9.18;2.08;;;;;;;;;;5037232;28;20141;-76
2021/07/17 09:55:38;;;;;;;6.30;1.85;;;;;;;;;;5040893;28;20063;-75
2021/07/17 09:58:10;;;;;;;9.15;2.03;;;;;;;;;;5039677;28;20422;-75
2021/07/17 10:00:37;;;;;;;9.88;1.95;;;;;;;;;;5043426;28;20049;-76
2021/07/17 10:03:18;;;;;;;8.63;2.03;;;;;;;;;;5040559;28;20091;-76
2021/07/17 10:05:44;;;;;;;10.45;2.25;;;;;;;;;;5041764;28;20045;-76
2021/07/17 10:08:13;;;;;;;7.25;1.45;;;;;;;;;;5035232;28;20045;-76
2021/07/17 10:10:40;;;;;;;9.98;1.85;;;;;;;;;;5038052;28;20451;-75
2021/07/17 10:13:06;;;;;;;5.70;1.80;;;;;;;;;;5034946;28;20055;-76
2021/07/17 10:15:32;;;;;;;7.15;1.45;;;;;;;;;;5033557;28;20041;-76
2021/07/17 10:18:23;;;;;;;6.32;1.60;;;;;;;;;;5040118;28;20126;-75
2021/07/17 10:20:50;;;;;;;11.68;1.77;;;;;;;;;;5034666;28;20647;-76
2021/07/17 10:23:16;;;;;;;6.60;2.10;;;;;;;;;;5044716;28;20045;-74
2021/07/17 10:25:42;;;;;;;6.18;1.67;;;;;;;;;;5043488;28;20052;-75
2021/07/17 10:28:10;;;;;;;4.43;1.27;;;;;;;;;;5041517;28;20045;-75
2021/07/17 10:30:36;;;;;;;11.05;1.60;;;;;;;;;;5038220;28;20202;-75
2021/07/17 10:33:02;;;;;;;7.80;1.73;;;;;;;;;;5040384;28;20045;-75
2021/07/17 10:35:29;;;;;;;6.90;1.63;;;;;;;;;;5035057;28;20112;-75
2021/07/17 10:37:57;;;;;;;10.13;1.70;;;;;;;;;;5038301;28;20550;-75
2021/07/17 10:40:23;;;;;;;8.73;2.00;;;;;;;;;;5039160;28;20040;-76
2021/07/17 10:42:52;;;;;;;8.77;2.08;;;;;;;;;;5036902;28;20114;-76
2021/07/17 10:45:31;;;;;;;5.93;1.38;;;;;;;;;;5040744;28;20437;-76
2021/07/17 10:47:57;;;;;;;6.88;1.90;;;;;;;;;;5035185;28;20116;-76
2021/07/17 10:50:31;;;;;;;10.27;2.30;;;;;;;;;;5040239;28;20403;-76
2021/07/17 10:52:57;;;;;;;10.00;2.20;;;;;;;;;;5034505;28;20037;-76
2021/07/17 10:55:23;;;;;;;8.93;2.35;;;;;;;;;;5037656;28;20417;-75
2021/07/17 10:57:50;;;;;;;8.38;1.80;;;;;;;;;;5032318;28;20474;-75
2021/07/17 11:00:36;;;;;;;6.85;1.63;;;;;;;;;;5033527;28;20033;-75
2021/07/17 11:03:20;;;;;;;8.02;2.30;;;;;;;;;;5041877;28;20041;-76
2021/07/17 11:05:48;;;;;;;8.75;1.70;;;;;;;;;;5044948;28;20095;-76
2021/07/17 11:08:30;;;;;;;8.88;2.00;;;;;;;;;;5040919;28;20488;-75
2021/07/17 11:10:57;;;;;;;7.18;1.50;;;;;;;;;;5038036;28;20063;-75
2021/07/17 11:13:31;;;;;;;6.30;1.80;;;;;;;;;;5034778;28;20480;-76
2021/07/17 11:15:57;;;;;;;5.00;1.20;;;;;;;;;;5037557;28;20080;-76
2021/07/17 11:18:26;;;;;;;5.20;1.63;;;;;;;;;;5034323;28;20124;-76
2021/07/17 11:20:58;;;;;;;6.20;1.33;;;;;;;;;;5038575;28;20045;-75
2021/07/17 11:23:30;;;;;;;6.35;1.65;;;;;;;;;;5044318;28;20068;-76
2021/07/17 11:25:58;;;;;;;3.58;1.00;;;;;;;;;;5038930;28;20045;-76
2021/07/17 11:28:42;;;;;;;5.20;1.10;;;;;;;;;;5037163;28;20053;-76
2021/07/17 11:31:26;;;;;;;8.73;1.30;;;;;;;;;;5035821;28;20041;-75
2021/07/17 11:34:17;;;;;;;5.38;1.23;;;;;;;;;;5033954;28;20453;-76
2021/07/17 11:36:46;;;;;;;4.10;1.00;;;;;;;;;;5034379;28;20120;-76
2021/07/17 11:39:14;;;;;;;7.60;1.40;;;;;;;;;;5037798;28;20045;-76
2021/07/17 11:41:41;;;;;;;3.70;0.93;;;;;;;;;;5037125;28;20106;-76
2021/07/17 11:44:07;;;;;;;5.22;1.52;;;;;;;;;;5041065;28;20051;-76
2021/07/17 11:46:34;;;;;;;5.50;1.95;;;;;;;;;;5035726;28;20512;-76
2021/07/17 11:49:01;;;;;;;6.00;1.33;;;;;;;;;;5036305;28;20128;-76
2021/07/17 11:51:28;;;;;;;3.17;1.02;;;;;;;;;;5041774;28;20049;-76
2021/07/17 11:53:58;;;;;;;7.30;1.25;;;;;;;;;;5039644;28;20059;-76
2021/07/17 11:56:24;;;;;;;2.88;1.00;;;;;;;;;;5036472;28;20046;-76
2021/07/17 11:58:50;;;;;;;3.17;1.25;;;;;;;;;;5035128;28;20086;-76
2021/07/17 12:01:18;;;;;;;3.17;1.20;;;;;;;;;;5035887;28;20481;-76
2021/07/17 12:03:55;;;;;;;6.70;1.33;;;;;;;;;;5032478;28;20034;-76
2021/07/17 12:06:32;;;;;;;4.78;1.10;;;;;;;;;;5033362;28;20150;-76
2021/07/17 12:09:13;;;;;;;3.72;1.30;;;;;;;;;;5032734;28;20068;-76
2021/07/17 12:11:39;;;;;;;3.95;1.08;;;;;;;;;;5043139;28;20041;-76
2021/07/17 12:14:29;;;;;;;3.95;1.00;;;;;;;;;;5042573;28;20100;-76
2021/07/17 12:16:56;;;;;;;3.58;1.13;;;;;;;;;;5038028;28;20052;-76
2021/07/17 12:19:23;;;;;;;4.00;1.20;;;;;;;;;;5031675;28;20060;-76
2021/07/17 12:21:56;;;;;;;5.00;1.10;;;;;;;;;;5043187;28;20047;-74
2021/07/17 12:24:22;;;;;;;13.10;1.98;;;;;;;;;;5043169;28;20049;-76
2021/07/17 12:26:48;;;;;;;3.10;1.05;;;;;;;;;;5036721;28;20041;-76
2021/07/17 12:29:14;;;;;;;3.63;1.40;;;;;;;;;;5037590;28;20041;-76
2021/07/17 12:31:56;;;;;;;5.75;1.00;;;;;;;;;;5035680;28;20107;-75
2021/07/17 12:34:23;;;;;;;4.43;1.25;;;;;;;;;;5034525;28;20201;-76
2021/07/17 12:36:49;;;;;;;3.97;1.25;;;;;;;;;;5037765;28;20383;-76
2021/07/17 12:39:20;;;;;;;2.92;0.90;;;;;;;;;;5039272;28;20076;-76
2021/07/17 12:41:46;;;;;;;4.70;1.20;;;;;;;;;;5040118;28;20037;-76
2021/07/17 12:44:15;;;;;;;4.28;1.10;;;;;;;;;;5039818;28;20123;-76
2021/07/17 12:46:43;;;;;;;3.85;1.00;;;;;;;;;;5039871;28;20101;-74
2021/07/17 12:49:15;;;;;;;2.83;0.93;;;;;;;;;;5035433;28;20059;-74
2021/07/17 12:51:42;;;;;;;5.03;1.40;;;;;;;;;;5041576;28;20087;-74
2021/07/17 12:54:11;;;;;;;5.78;1.50;;;;;;;;;;5045951;28;20042;-74
2021/07/17 12:56:38;;;;;;;4.30;1.40;;;;;;;;;;5039341;28;20072;-74
2021/07/17 12:59:07;;;;;;;5.60;1.40;;;;;;;;;;5044139;28;20049;-74
2021/07/17 13:01:34;;;;;;;5.75;1.60;;;;;;;;;;5040922;28;20049;-74
2021/07/17 13:04:00;;;;;;;4.53;1.10;;;;;;;;;;5037757;28;20042;-74
2021/07/17 13:06:27;;;;;;;5.18;1.25;;;;;;;;;;5040724;28;20045;-74
2021/07/17 13:08:58;;;;;;;5.72;1.55;;;;;;;;;;5037504;28;20041;-75
2021/07/17 13:11:26;;;;;;;4.65;1.15;;;;;;;;;;5039722;28;20052;-74
2021/07/17 13:13:54;;;;;;;6.00;1.08;;;;;;;;;;5037245;28;20132;-75
2021/07/17 13:16:39;;;;;;;7.22;1.35;;;;;;;;;;5036627;28;20059;-75
2021/07/17 13:19:11;;;;;;;6.13;1.23;;;;;;;;;;5041970;28;20049;-74
2021/07/17 13:21:40;;;;;;;4.47;1.13;;;;;;;;;;5037968;28;20054;-75
2021/07/17 13:24:08;;;;;;;3.42;1.00;;;;;;;;;;5034709;28;20181;-74
2021/07/17 13:26:36;;;;;;;4.22;1.00;;;;;;;;;;5041126;28;20134;-74
2021/07/17 13:29:14;;;;;;;5.75;1.20;;;;;;;;;;5038240;28;20038;-75
2021/07/17 13:31:47;;;;;;;2.97;0.85;;;;;;;;;;5043380;28;20103;-75
2021/07/17 13:34:14;;;;;;;3.63;1.00;;;;;;;;;;5033836;28;20042;-75
2021/07/17 13:36:51;;;;;;;4.18;0.88;;;;;;;;;;5038709;28;20049;-75
2021/07/17 13:39:17;;;;;;;5.85;0.93;;;;;;;;;;5034202;28;20512;-74
2021/07/17 13:41:43;;;;;;;4.20;1.00;;;;;;;;;;5039704;28;20116;-76
2021/07/17 13:44:16;;;;;;;3.58;0.90;;;;;;;;;;5036352;28;20064;-75
2021/07/17 13:46:42;;;;;;;4.22;1.27;;;;;;;;;;5039098;28;20050;-78
2021/07/17 13:49:11;;;;;;;3.80;0.98;;;;;;;;;;5042112;28;20132;-77
2021/07/17 13:51:37;;;;;;;6.70;1.15;;;;;;;;;;5037054;28;20045;-76
2021/07/17 13:54:04;;;;;;;5.07;1.10;;;;;;;;;;5035432;28;20082;-76
2021/07/17 13:56:30;;;;;;;3.40;1.00;;;;;;;;;;5033975;28;20071;-77
2021/07/17 13:59:03;;;;;;;4.43;1.00;;;;;;;;;;5043843;28;20045;-77
2021/07/17 14:01:31;;;;;;;8.75;1.13;;;;;;;;;;5034396;28;20121;-76
2021/07/17 14:03:57;;;;;;;3.22;1.17;;;;;;;;;;5040029;28;20067;-77
2021/07/17 14:06:27;;;;;;;4.13;0.95;;;;;;;;;;5035551;28;20437;-75
2021/07/17 14:08:55;;;;;;;4.68;1.15;;;;;;;;;;5039891;28;20119;-74
2021/07/17 14:11:22;;;;;;;3.95;1.10;;;;;;;;;;5042501;28;20043;-78
2021/07/17 14:13:48;;;;;;;3.55;0.85;;;;;;;;;;5037049;28;20040;-76
2021/07/17 14:16:14;;;;;;;3.08;0.98;;;;;;;;;;5039221;28;20125;-76
2021/07/17 14:18:41;;;;;;;2.47;0.80;;;;;;;;;;5038815;28;20045;-75
2021/07/17 14:21:08;;;;;;;3.53;0.80;;;;;;;;;;5037624;28;20117;-75
2021/07/17 14:23:34;;;;;;;3.85;1.00;;;;;;;;;;5039848;28;20496;-75
2021/07/17 14:26:01;;;;;;;4.70;1.08;;;;;;;;;;5040177;28;20076;-75
2021/07/17 14:28:28;;;;;;;4.15;1.02;;;;;;;;;;5044358;28;20048;-75
2021/07/17 14:30:55;;;;;;;4.55;0.82;;;;;;;;;;5035375;28;20053;-75
2021/07/17 14:33:23;;;;;;;3.65;0.90;;;;;;;;;;5038084;28;20387;-75
2021/07/17 14:35:49;;;;;;;3.28;1.08;;;;;;;;;;5032431;28;20504;-75